createdAt,value
2023-08-08T00:01:18.891Z,16.56
2023-08-08T00:03:46.592Z,16.40
2023-08-08T00:06:14.760Z,16.28
2023-08-08T00:08:42.661Z,16.43
2023-08-08T00:11:10.255Z,16.70
2023-08-08T00:13:38.098Z,16.80
2023-08-08T00:16:06.445Z,16.77
2023-08-08T00:18:34.195Z,16.66
2023-08-08T00:21:01.975Z,16.53
2023-08-08T00:23:29.820Z,16.40
2023-08-08T00:25:57.499Z,16.23
2023-08-08T00:28:25.580Z,16.11
2023-08-08T00:30:54.397Z,16.25
2023-08-08T00:33:22.203Z,16.60
2023-08-08T00:35:49.960Z,16.71
2023-08-08T00:38:19.485Z,16.72
2023-08-08T00:40:47.680Z,16.58
2023-08-08T00:43:15.449Z,16.46
2023-08-08T00:45:44.665Z,16.30
2023-08-08T00:48:13.009Z,16.15
2023-08-08T00:50:45.655Z,16.01
2023-08-08T00:53:13.705Z,16.20
2023-08-08T00:55:42.137Z,16.49
2023-08-08T00:58:10.229Z,16.60
2023-08-08T01:00:38.058Z,16.55
2023-08-08T01:03:06.467Z,16.43
2023-08-08T01:05:39.714Z,16.27
2023-08-08T01:08:08.857Z,16.11
2023-08-08T01:10:40.750Z,15.94
2023-08-08T01:13:12.610Z,15.81
2023-08-08T01:15:40.877Z,16.01
2023-08-08T01:18:11.049Z,16.36
2023-08-08T01:20:39.618Z,16.48
2023-08-08T01:23:20.865Z,16.43
2023-08-08T01:25:49.751Z,16.29
2023-08-08T01:28:21.717Z,16.17
2023-08-08T01:30:49.748Z,16.00
2023-08-08T01:33:17.603Z,15.83
2023-08-08T01:35:51.904Z,15.68
2023-08-08T01:38:28.278Z,15.85
2023-08-08T01:40:59.121Z,16.15
2023-08-08T01:43:28.080Z,16.31
2023-08-08T01:45:56.441Z,16.31
2023-08-08T01:48:24.310Z,16.18
2023-08-08T01:50:52.942Z,16.05
2023-08-08T01:53:20.664Z,15.87
2023-08-08T01:55:48.387Z,15.72
2023-08-08T01:58:16.385Z,15.60
2023-08-08T02:00:45.460Z,15.77
2023-08-08T02:03:13.180Z,16.14
2023-08-08T02:05:41.670Z,16.26
2023-08-08T02:08:09.336Z,16.20
2023-08-08T02:10:36.953Z,16.10
2023-08-08T02:13:05.189Z,15.95
2023-08-08T02:15:32.838Z,15.77
2023-08-08T02:18:02.031Z,15.63
2023-08-08T02:20:30.004Z,15.52
2023-08-08T02:22:57.616Z,15.68
2023-08-08T02:25:25.299Z,16.02
2023-08-08T02:27:53.168Z,16.19
2023-08-08T02:30:21.022Z,16.17
2023-08-08T02:32:48.710Z,16.08
2023-08-08T02:35:16.736Z,15.96
2023-08-08T02:37:44.403Z,15.83
2023-08-08T02:40:12.341Z,15.78
2023-08-08T02:42:40.350Z,15.80
2023-08-08T02:45:08.783Z,16.20
2023-08-08T02:47:36.496Z,16.92
2023-08-08T02:50:04.938Z,17.44
2023-08-08T02:52:33.371Z,17.85
2023-08-08T02:55:01.064Z,18.17
2023-08-08T02:57:29.328Z,18.49
2023-08-08T02:59:57.255Z,18.85
2023-08-08T03:02:25.627Z,19.18
2023-08-08T03:04:54.333Z,19.54
2023-08-08T03:07:23.032Z,19.91
2023-08-08T03:09:51.596Z,20.29
2023-08-08T03:12:19.620Z,20.69
2023-08-08T03:14:48.517Z,21.10
2023-08-08T03:17:16.167Z,21.53
2023-08-08T03:19:44.859Z,22.04
2023-08-08T03:22:12.970Z,22.58
2023-08-08T03:24:41.049Z,23.07
2023-08-08T03:27:08.802Z,23.53
2023-08-08T03:29:36.557Z,23.98
2023-08-08T03:32:06.035Z,24.44
2023-08-08T03:34:34.213Z,24.91
2023-08-08T03:37:02.020Z,25.33
2023-08-08T03:39:29.843Z,25.72
2023-08-08T03:41:57.982Z,26.04
2023-08-08T03:44:26.128Z,26.40
2023-08-08T03:47:02.296Z,26.78
2023-08-08T03:49:37.748Z,27.21
2023-08-08T03:52:05.734Z,27.52
2023-08-08T03:54:33.836Z,27.76
2023-08-08T03:57:02.367Z,27.93
2023-08-08T03:59:30.292Z,28.12
2023-08-08T04:01:57.955Z,28.39
2023-08-08T04:04:25.727Z,28.73
2023-08-08T04:06:53.483Z,29.00
2023-08-08T04:09:21.170Z,29.29
2023-08-08T04:11:48.982Z,29.70
2023-08-08T04:14:16.727Z,30.07
2023-08-08T04:16:44.351Z,30.47
2023-08-08T04:19:12.096Z,30.81
2023-08-08T04:21:39.960Z,31.17
2023-08-08T04:24:09.089Z,31.56
2023-08-08T04:26:36.923Z,32.00
2023-08-08T04:29:04.963Z,32.38
2023-08-08T04:31:32.615Z,32.69
2023-08-08T04:34:02.636Z,32.97
2023-08-08T04:36:31.714Z,33.36
2023-08-08T04:38:59.420Z,33.65
2023-08-08T04:41:27.102Z,33.96
2023-08-08T04:43:54.867Z,34.32
2023-08-08T04:46:22.739Z,34.69
2023-08-08T04:48:50.678Z,35.12
2023-08-08T04:51:19.181Z,35.58
2023-08-08T04:53:46.752Z,35.94
2023-08-08T04:56:14.829Z,36.39
2023-08-08T04:58:42.530Z,36.88
2023-08-08T05:01:13.360Z,37.34
2023-08-08T05:03:41.750Z,37.63
2023-08-08T05:06:09.509Z,38.00
2023-08-08T05:08:37.303Z,38.44
2023-08-08T05:11:05.009Z,38.78
2023-08-08T05:13:32.671Z,39.09
2023-08-08T05:16:00.442Z,39.53
2023-08-08T05:18:28.107Z,40.00
2023-08-08T05:20:55.723Z,40.36
2023-08-08T05:23:23.585Z,40.68
2023-08-08T05:25:51.266Z,40.95
2023-08-08T05:28:18.933Z,41.26
2023-08-08T05:30:46.745Z,41.63
2023-08-08T05:33:14.571Z,41.89
2023-08-08T05:35:42.441Z,42.25
2023-08-08T05:38:10.095Z,42.53
2023-08-08T05:40:37.861Z,42.86
2023-08-08T05:43:05.903Z,43.17
2023-08-08T05:45:33.467Z,43.37
2023-08-08T05:48:01.783Z,43.61
2023-08-08T05:50:29.634Z,43.85
2023-08-08T05:52:57.425Z,44.00
2023-08-08T05:55:25.267Z,44.26
2023-08-08T05:57:53.027Z,44.60
2023-08-08T06:00:20.968Z,44.77
2023-08-08T06:02:48.654Z,43.84
2023-08-08T06:05:18.764Z,42.60
2023-08-08T06:07:46.605Z,41.49
2023-08-08T06:10:14.445Z,40.95
2023-08-08T06:12:42.875Z,40.98
2023-08-08T06:15:10.972Z,40.91
2023-08-08T06:17:38.755Z,40.15
2023-08-08T06:20:08.333Z,39.04
2023-08-08T06:22:36.246Z,37.81
2023-08-08T06:25:04.708Z,36.64
2023-08-08T06:27:32.310Z,36.15
2023-08-08T06:30:00.391Z,35.64
2023-08-08T06:32:28.548Z,35.24
2023-08-08T06:34:56.456Z,35.41
2023-08-08T06:37:24.460Z,36.35
2023-08-08T06:39:52.065Z,37.65
2023-08-08T06:42:22.920Z,37.97
2023-08-08T06:44:58.072Z,36.85
2023-08-08T06:47:25.863Z,35.69
2023-08-08T06:49:54.053Z,34.91
2023-08-08T06:52:23.700Z,34.69
2023-08-08T06:54:51.436Z,34.90
2023-08-08T06:57:19.087Z,34.70
2023-08-08T06:59:51.766Z,34.15
2023-08-08T07:02:20.558Z,33.42
2023-08-08T07:04:48.506Z,32.56
2023-08-08T07:07:16.325Z,31.87
2023-08-08T07:09:45.144Z,31.41
2023-08-08T07:12:12.933Z,30.99
2023-08-08T07:14:41.007Z,30.54
2023-08-08T07:17:08.667Z,30.15
2023-08-08T07:19:37.603Z,29.82
2023-08-08T07:22:05.571Z,29.58
2023-08-08T07:24:33.245Z,29.32
2023-08-08T07:27:00.988Z,29.01
2023-08-08T07:29:28.693Z,28.66
2023-08-08T07:31:56.924Z,28.42
2023-08-08T07:34:24.705Z,28.08
2023-08-08T07:36:52.515Z,27.81
2023-08-08T07:39:20.322Z,27.63
2023-08-08T07:41:48.043Z,27.54
2023-08-08T07:44:15.720Z,27.50
2023-08-08T07:46:43.619Z,27.34
2023-08-08T07:49:11.507Z,27.29
2023-08-08T07:51:39.191Z,27.44
2023-08-08T07:54:09.868Z,27.57
2023-08-08T07:56:38.147Z,27.68
2023-08-08T07:59:06.643Z,27.72
2023-08-08T08:01:34.428Z,27.88
2023-08-08T08:04:04.181Z,27.98
2023-08-08T08:06:32.561Z,28.16
2023-08-08T08:09:00.481Z,28.27
2023-08-08T08:11:28.948Z,28.22
2023-08-08T08:13:56.728Z,28.25
2023-08-08T08:16:25.418Z,28.34
2023-08-08T08:18:53.089Z,28.35
2023-08-08T08:21:20.714Z,28.21
2023-08-08T08:23:49.109Z,27.90
2023-08-08T08:26:16.935Z,27.47
2023-08-08T08:28:44.726Z,27.13
2023-08-08T08:31:12.390Z,26.85
2023-08-08T08:33:40.308Z,26.56
2023-08-08T08:36:08.237Z,26.34
2023-08-08T08:38:35.843Z,26.06
2023-08-08T08:41:04.654Z,25.81
2023-08-08T08:43:33.518Z,25.65
2023-08-08T08:46:11.612Z,25.52
2023-08-08T08:48:39.508Z,25.39
2023-08-08T08:51:07.687Z,25.32
2023-08-08T08:53:40.933Z,25.27
2023-08-08T08:56:10.089Z,25.15
2023-08-08T08:58:37.916Z,25.03
2023-08-08T09:01:05.980Z,24.95
2023-08-08T09:03:34.018Z,24.95
2023-08-08T09:06:02.790Z,24.99
2023-08-08T09:08:30.826Z,25.10
2023-08-08T09:10:58.969Z,25.14
2023-08-08T09:13:27.930Z,25.27
2023-08-08T09:15:56.729Z,25.27
2023-08-08T09:18:26.157Z,25.31
2023-08-08T09:20:55.841Z,25.40
2023-08-08T09:23:23.800Z,25.42
2023-08-08T09:25:51.708Z,25.39
2023-08-08T09:28:19.753Z,25.37
2023-08-08T09:30:47.840Z,25.47
2023-08-08T09:33:15.541Z,25.59
2023-08-08T09:35:43.209Z,25.70
2023-08-08T09:38:11.388Z,25.79
2023-08-08T09:40:39.181Z,25.92
2023-08-08T09:43:10.025Z,25.98
2023-08-08T09:45:43.152Z,26.00
2023-08-08T09:48:11.036Z,26.05
2023-08-08T09:50:40.998Z,26.12
2023-08-08T09:53:09.793Z,26.24
2023-08-08T09:55:39.770Z,26.38
2023-08-08T09:58:10.201Z,26.48
2023-08-08T10:00:38.298Z,26.47
2023-08-08T10:03:06.777Z,26.52
2023-08-08T10:05:34.944Z,26.55
2023-08-08T10:08:02.746Z,26.60
2023-08-08T10:10:31.957Z,26.73
2023-08-08T10:13:00.622Z,26.85
2023-08-08T10:15:28.655Z,26.95
2023-08-08T10:17:59.810Z,27.07
2023-08-08T10:20:27.673Z,27.21
2023-08-08T10:22:58.037Z,27.28
2023-08-08T10:25:29.723Z,27.29
2023-08-08T10:28:19.537Z,27.33
2023-08-08T10:30:52.274Z,27.38
2023-08-08T10:33:22.641Z,27.44
2023-08-08T10:36:00.408Z,27.59
2023-08-08T10:38:44.081Z,27.68
2023-08-08T10:41:20.084Z,27.82
2023-08-08T10:43:54.584Z,27.85
2023-08-08T10:46:30.978Z,27.88
2023-08-08T10:49:01.727Z,27.88
2023-08-08T10:51:48.085Z,27.84
2023-08-08T10:54:17.040Z,27.90
2023-08-08T10:56:52.796Z,27.91
2023-08-08T10:59:26.193Z,27.97
2023-08-08T11:01:54.663Z,27.98
2023-08-08T11:04:24.691Z,27.93
2023-08-08T11:06:55.533Z,27.96
2023-08-08T11:09:24.701Z,27.92
2023-08-08T11:11:52.347Z,27.95
2023-08-08T11:14:22.673Z,27.95
2023-08-08T11:16:52.661Z,27.89
2023-08-08T11:19:22.302Z,27.86
2023-08-08T11:21:50.610Z,27.88
2023-08-08T11:24:18.486Z,27.94
2023-08-08T11:26:49.099Z,28.03
2023-08-08T11:29:16.895Z,27.93
2023-08-08T11:31:45.152Z,27.87
2023-08-08T11:34:13.973Z,27.92
2023-08-08T11:36:42.067Z,27.98
2023-08-08T11:39:13.235Z,27.99
2023-08-08T11:41:42.565Z,27.90
2023-08-08T11:44:10.533Z,27.79
2023-08-08T11:46:47.022Z,27.75
2023-08-08T11:49:17.653Z,27.65
2023-08-08T11:51:47.331Z,27.66
2023-08-08T11:54:16.025Z,27.71
2023-08-08T11:56:44.664Z,27.62
2023-08-08T11:59:13.850Z,27.54
2023-08-08T12:01:44.117Z,27.56
2023-08-08T12:04:11.848Z,27.52
2023-08-08T12:06:45.539Z,27.59
2023-08-08T12:09:16.724Z,27.65
2023-08-08T12:11:46.360Z,27.56
2023-08-08T12:14:16.189Z,27.49
2023-08-08T12:16:45.129Z,27.43
2023-08-08T12:19:14.066Z,27.34
2023-08-08T12:21:41.749Z,27.28
2023-08-08T12:24:09.625Z,27.26
2023-08-08T12:26:38.119Z,27.18
2023-08-08T12:29:05.955Z,27.11
2023-08-08T12:31:33.613Z,27.14
2023-08-08T12:34:01.427Z,27.32
2023-08-08T12:36:29.429Z,27.49
2023-08-08T12:38:57.150Z,27.50
2023-08-08T12:41:26.149Z,27.46
2023-08-08T12:43:54.049Z,27.38
2023-08-08T12:46:21.699Z,27.26
2023-08-08T12:48:49.525Z,27.18
2023-08-08T12:51:18.241Z,27.20
2023-08-08T12:53:46.105Z,27.17
2023-08-08T12:56:14.020Z,27.18
2023-08-08T12:58:42.139Z,27.19
2023-08-08T13:01:09.860Z,27.21
2023-08-08T13:03:37.450Z,27.24
2023-08-08T13:06:05.324Z,27.24
2023-08-08T13:08:33.877Z,27.21
2023-08-08T13:11:01.801Z,27.18
2023-08-08T13:13:29.646Z,27.19
2023-08-08T13:15:57.659Z,27.15
2023-08-08T13:18:25.304Z,27.15
2023-08-08T13:20:53.616Z,27.07
2023-08-08T13:23:21.436Z,26.88
2023-08-08T13:25:50.392Z,26.69
2023-08-08T13:28:18.246Z,26.62
2023-08-08T13:30:46.273Z,26.53
2023-08-08T13:33:13.936Z,26.49
2023-08-08T13:35:41.823Z,26.49
2023-08-08T13:38:15.950Z,26.52
2023-08-08T13:40:44.068Z,26.47
2023-08-08T13:43:11.830Z,26.42
2023-08-08T13:45:39.479Z,26.41
2023-08-08T13:48:07.699Z,26.39
2023-08-08T13:50:35.408Z,26.37
2023-08-08T13:53:03.161Z,26.36
2023-08-08T13:55:31.236Z,26.33
2023-08-08T13:57:59.299Z,26.30
2023-08-08T14:00:27.992Z,26.25
2023-08-08T14:02:56.037Z,26.15
2023-08-08T14:05:24.995Z,26.08
2023-08-08T14:07:52.595Z,26.10
2023-08-08T14:10:21.391Z,26.13
2023-08-08T14:12:49.004Z,26.10
2023-08-08T14:15:16.586Z,25.98
2023-08-08T14:17:45.881Z,25.98
2023-08-08T14:20:13.831Z,25.99
2023-08-08T14:22:41.473Z,25.93
2023-08-08T14:25:09.402Z,25.85
2023-08-08T14:27:37.317Z,25.80
2023-08-08T14:30:05.773Z,25.77
2023-08-08T14:32:34.226Z,25.77
2023-08-08T14:35:03.911Z,25.73
2023-08-08T14:37:32.557Z,25.69
2023-08-08T14:40:00.442Z,25.62
2023-08-08T14:42:28.079Z,25.50
2023-08-08T14:44:56.099Z,25.44
2023-08-08T14:47:24.306Z,25.40
2023-08-08T14:49:52.438Z,25.35
2023-08-08T14:52:20.299Z,25.31
2023-08-08T14:54:48.302Z,25.25
2023-08-08T14:57:16.014Z,25.19
2023-08-08T14:59:43.886Z,25.10
2023-08-08T15:02:11.937Z,25.04
2023-08-08T15:04:39.663Z,25.01
2023-08-08T15:07:07.480Z,24.95
2023-08-08T15:09:35.382Z,24.85
2023-08-08T15:12:02.958Z,24.82
2023-08-08T15:14:30.875Z,24.78
2023-08-08T15:16:58.968Z,24.74
2023-08-08T15:19:27.017Z,24.72
2023-08-08T15:21:55.791Z,24.69
2023-08-08T15:24:23.524Z,24.61
2023-08-08T15:26:51.095Z,24.48
2023-08-08T15:29:18.956Z,24.41
2023-08-08T15:31:46.896Z,24.33
2023-08-08T15:34:14.563Z,24.27
2023-08-08T15:36:42.516Z,24.17
2023-08-08T15:39:10.544Z,24.10
2023-08-08T15:41:38.317Z,24.04
2023-08-08T15:44:06.039Z,23.99
2023-08-08T15:46:34.025Z,23.94
2023-08-08T15:49:01.661Z,23.90
2023-08-08T15:51:29.536Z,23.83
2023-08-08T15:53:57.225Z,23.78
2023-08-08T15:56:24.823Z,23.67
2023-08-08T15:58:52.674Z,23.57
2023-08-08T16:01:20.313Z,23.45
2023-08-08T16:03:47.973Z,23.26
2023-08-08T16:06:15.719Z,23.08
2023-08-08T16:08:43.570Z,22.91
2023-08-08T16:11:11.186Z,22.77
2023-08-08T16:13:39.122Z,22.66
2023-08-08T16:16:06.761Z,22.53
2023-08-08T16:18:34.796Z,22.46
2023-08-08T16:21:02.702Z,22.37
2023-08-08T16:23:31.599Z,22.26
2023-08-08T16:25:59.315Z,22.17
2023-08-08T16:28:29.540Z,22.05
2023-08-08T16:30:57.711Z,21.90
2023-08-08T16:33:25.696Z,21.76
2023-08-08T16:35:54.049Z,21.66
2023-08-08T16:38:23.881Z,21.58
2023-08-08T16:40:54.820Z,21.53
2023-08-08T16:43:22.830Z,21.47
2023-08-08T16:45:50.738Z,21.42
2023-08-08T16:48:18.580Z,21.35
2023-08-08T16:50:46.194Z,21.27
2023-08-08T16:53:14.360Z,21.20
2023-08-08T16:55:43.193Z,21.15
2023-08-08T16:58:11.375Z,21.12
2023-08-08T17:00:39.121Z,21.08
2023-08-08T17:03:07.123Z,21.00
2023-08-08T17:05:35.250Z,20.92
2023-08-08T17:08:03.142Z,20.85
2023-08-08T17:10:31.149Z,20.83
2023-08-08T17:12:59.302Z,20.78
2023-08-08T17:15:27.049Z,20.72
2023-08-08T17:17:54.796Z,20.67
2023-08-08T17:20:22.576Z,20.63
2023-08-08T17:22:50.318Z,20.60
2023-08-08T17:25:18.171Z,20.59
2023-08-08T17:27:46.860Z,20.57
2023-08-08T17:30:14.753Z,20.54
2023-08-08T17:32:42.385Z,20.51
2023-08-08T17:35:10.241Z,20.46
2023-08-08T17:37:37.913Z,20.40
2023-08-08T17:40:06.181Z,20.33
2023-08-08T17:42:34.904Z,20.27
2023-08-08T17:45:05.008Z,20.22
2023-08-08T17:50:28.734Z,20.08
2023-08-08T17:52:57.376Z,19.99
2023-08-08T17:55:51.302Z,19.93
2023-08-08T17:58:45.887Z,19.87
2023-08-08T18:01:14.330Z,19.82
2023-08-08T18:03:42.244Z,19.76
2023-08-08T18:06:10.112Z,19.69
2023-08-08T18:08:38.156Z,19.63
2023-08-08T18:11:05.739Z,19.55
2023-08-08T18:13:33.520Z,19.46
2023-08-08T18:16:02.350Z,19.43
2023-08-08T18:18:30.293Z,19.39
2023-08-08T18:20:57.991Z,19.34
2023-08-08T18:23:28.800Z,19.30
2023-08-08T18:25:56.674Z,19.27
2023-08-08T18:28:24.350Z,19.24
2023-08-08T18:30:52.192Z,19.21
2023-08-08T18:33:20.113Z,19.17
2023-08-08T18:35:48.241Z,19.12
2023-08-08T18:38:18.742Z,19.10
2023-08-08T18:40:46.651Z,19.08
2023-08-08T18:43:14.305Z,19.05
2023-08-08T18:45:42.201Z,18.99
2023-08-08T18:48:10.364Z,18.96
2023-08-08T18:50:38.365Z,18.92
2023-08-08T18:53:07.525Z,18.89
2023-08-08T18:55:36.124Z,18.87
2023-08-08T18:58:04.143Z,18.83
2023-08-08T19:00:31.984Z,18.80
2023-08-08T19:02:59.978Z,18.77
2023-08-08T19:05:29.463Z,18.74
2023-08-08T19:07:58.574Z,18.71
2023-08-08T19:10:26.196Z,18.68
2023-08-08T19:12:53.811Z,18.65
2023-08-08T19:15:22.303Z,18.65
2023-08-08T19:17:56.228Z,18.64
2023-08-08T19:20:25.566Z,18.63
2023-08-08T19:22:53.444Z,18.61
2023-08-08T19:25:22.476Z,18.59
2023-08-08T19:27:54.618Z,18.58
2023-08-08T19:30:23.571Z,18.56
2023-08-08T19:32:51.592Z,18.53
2023-08-08T19:35:19.392Z,18.50
2023-08-08T19:37:47.075Z,18.47
2023-08-08T19:40:14.957Z,18.45
2023-08-08T19:42:44.722Z,18.43
2023-08-08T19:45:12.409Z,18.41
2023-08-08T19:47:40.439Z,18.39
2023-08-08T19:50:08.637Z,18.35
2023-08-08T19:52:36.528Z,18.30
2023-08-08T19:55:04.891Z,18.27
2023-08-08T19:57:35.096Z,18.23
2023-08-08T20:00:05.284Z,18.20
2023-08-08T20:02:40.563Z,18.18
2023-08-08T20:05:09.587Z,18.15
2023-08-08T20:07:37.352Z,18.14
2023-08-08T20:10:06.731Z,18.13
2023-08-08T20:12:34.600Z,18.11
2023-08-08T20:15:02.529Z,18.08
2023-08-08T20:17:34.662Z,18.06
2023-08-08T20:20:02.809Z,18.04
2023-08-08T20:22:30.662Z,18.01
2023-08-08T20:24:58.588Z,17.98
2023-08-08T20:27:26.408Z,17.97
2023-08-08T20:29:54.287Z,17.98
2023-08-08T20:32:21.890Z,17.98
2023-08-08T20:34:49.917Z,17.99
2023-08-08T20:37:19.950Z,18.00
2023-08-08T20:39:47.619Z,18.02
2023-08-08T20:42:15.545Z,18.04
2023-08-08T20:44:43.533Z,18.07
2023-08-08T20:47:11.580Z,18.37
2023-08-08T20:49:39.550Z,18.84
2023-08-08T20:52:07.655Z,19.12
2023-08-08T20:54:35.361Z,19.16
2023-08-08T20:57:03.539Z,19.12
2023-08-08T20:59:49.214Z,19.03
2023-08-08T21:02:18.624Z,18.89
2023-08-08T21:04:53.517Z,18.75
2023-08-08T21:07:21.458Z,18.64
2023-08-08T21:09:49.184Z,18.52
2023-08-08T21:12:17.107Z,18.39
2023-08-08T21:14:45.060Z,18.30
2023-08-08T21:17:13.598Z,18.21
2023-08-08T21:19:41.824Z,18.14
2023-08-08T21:22:10.647Z,18.06
2023-08-08T21:24:38.653Z,18.00
2023-08-08T21:27:06.918Z,17.94
2023-08-08T21:29:34.964Z,17.90
2023-08-08T21:32:02.564Z,17.86
2023-08-08T21:34:30.516Z,17.81
2023-08-08T21:36:58.124Z,17.75
2023-08-08T21:39:25.986Z,17.70
2023-08-08T21:41:53.676Z,17.66
2023-08-08T21:44:24.146Z,17.60
2023-08-08T21:46:53.069Z,17.55
2023-08-08T21:49:20.690Z,17.49
2023-08-08T21:51:48.566Z,17.45
2023-08-08T21:54:16.864Z,17.65
2023-08-08T21:56:46.339Z,18.03
2023-08-08T21:59:14.152Z,18.24
2023-08-08T22:01:41.959Z,18.28
2023-08-08T22:04:09.888Z,18.20
2023-08-08T22:06:37.714Z,18.09
2023-08-08T22:09:09.121Z,17.96
2023-08-08T22:11:36.825Z,17.83
2023-08-08T22:14:04.791Z,17.70
2023-08-08T22:16:32.757Z,17.57
2023-08-08T22:19:00.605Z,17.46
2023-08-08T22:21:28.695Z,17.37
2023-08-08T22:23:56.453Z,17.27
2023-08-08T22:26:24.634Z,17.18
2023-08-08T22:28:59.839Z,17.11
2023-08-08T22:31:28.249Z,17.04
2023-08-08T22:33:56.431Z,16.98
2023-08-08T22:36:24.259Z,17.16
2023-08-08T22:38:52.000Z,17.53
2023-08-08T22:41:19.731Z,17.71
2023-08-08T22:43:47.488Z,17.75
2023-08-08T22:46:15.382Z,17.68
2023-08-08T22:48:43.075Z,17.54
2023-08-08T22:51:10.777Z,17.40
2023-08-08T22:53:38.675Z,17.25
2023-08-08T22:56:06.429Z,17.11
2023-08-08T22:58:58.899Z,17.03
2023-08-08T23:01:26.552Z,16.91
2023-08-08T23:03:54.407Z,16.81
2023-08-08T23:06:22.038Z,16.98
2023-08-08T23:08:50.745Z,17.32
2023-08-08T23:11:18.497Z,17.51
2023-08-08T23:13:46.478Z,17.50
2023-08-08T23:16:14.351Z,17.42
2023-08-08T23:18:42.699Z,17.32
2023-08-08T23:21:10.268Z,17.19
2023-08-08T23:23:38.248Z,17.04
2023-08-08T23:26:06.072Z,16.91
2023-08-08T23:28:33.838Z,16.81
2023-08-08T23:31:01.800Z,16.73
2023-08-08T23:33:30.183Z,16.87
2023-08-08T23:35:57.887Z,17.20
2023-08-08T23:38:25.796Z,17.39
2023-08-08T23:40:53.427Z,17.41
2023-08-08T23:43:21.026Z,17.34
2023-08-08T23:45:48.909Z,17.20
2023-08-08T23:48:16.526Z,17.05
2023-08-08T23:50:44.152Z,16.90
2023-08-08T23:53:11.873Z,16.77
2023-08-08T23:55:41.518Z,16.65
2023-08-08T23:58:09.308Z,16.79
